Las horas y fechas están en horario UTC
Sumar 1 hora en el horario de Invierno y 2 horas en el de Verano

Informes METAR cercanos

 

LEZL - Sevilla (civ/Mil, Spain
Distance from station: NNE 24km
Actualización: 21/01/2020 01:30
Despejado
Despejado
 Viento del ENE
Viento: ENE 19 km/h
Temperatura: 11°C
Rocío: 3°C
Humedad: 58%
Barómetro: 1016 hPa
Resumen: Despejado
Visibility: greater than 10 km
2020/01/21 00:30 LEZL 210030Z AUTO 06010KT CAVOK 11/03 Q1016
LEMO - Moron (sp-Usafb), Spain
Distance from station: E 38km
Actualización: 21/01/2020 01:00
Despejado
Despejado
 Viento del NNE
Viento: NNE 20 km/h
Temperatura: 7°C
Wind Chill: 4°C
Rocío: 3°C
Humedad: 76%
Barómetro: 1015 hPa
Resumen: Despejado
Visibility: greater than 10 km
2020/01/21 00:00 LEMO 210000Z 03011KT CAVOK 07/03 Q1015 NOSIG
LEJR - Jerez (civ/Mil), Spain
Distance from station: S 53km
Actualización: 21/01/2020 01:30
Few Clouds
Few Clouds
 Viento del N
Viento: N 13 km/h
Temperatura: 8°C
Wind Chill: 6°C
Rocío: 4°C
Humedad: 76%
Barómetro: 1015 hPa
Clouds: Few Clouds
Visibility: 10 km
Cloud details: Few Clouds 1524 m
2020/01/21 00:30 LEJR 210030Z AUTO 01007KT 9999 FEW050 08/04 Q1015
 
LERT - Rota Naval Stati, Spain
Distance from station: SSO 71km
Actualización: 21/01/2020 01:00
Muy nuboso
Muy nuboso
 Viento del NE
Viento: NE 19 km/h
Temperatura: 9°C
Wind Chill: 6°C
Rocío: 5°C
Humedad: 76%
Barómetro: 1015 hPa
Clouds: Muy nuboso
Visibility: 10 km
Cloud details: Muy nuboso 1676 m
2020/01/21 00:00 LERT 210000Z 05010KT 020V080 9999 BKN055 09/05 Q1015 NOSIG
LEBA - Cordoba Airport, Spain
Distance from station: ENE 128km
Actualización: 21/01/2020 01:30
Despejado
Despejado
 Viento del ENE
Viento: ENE 13 km/h
Temperatura: 9°C
Wind Chill: 7°C
Rocío: 2°C
Humedad: 62%
Barómetro: 1016 hPa
Resumen: Despejado
Visibility: greater than 10 km
2020/01/21 00:30 LEBA 210030Z AUTO 06007KT 010V100 CAVOK 09/02 Q1016
LXGB - Gibraltar (civ/M, Gibraltar
Distance from station: SSE 137km
Actualización: 20/01/2020 23:50
NOT Current
Muy nuboso
Muy nuboso
 Viento del E
Viento: E 39 km/h
Temperatura: 12°C
Rocío: 9°C
Humedad: 82%
Barómetro: 1014 hPa
Clouds: Muy nuboso
Visibility: 10 km
Cloud details: Muy nuboso 1463 m
2020/01/20 22:50 LXGB 202250Z AUTO 08021KT 9999 // BKN048/// 12/09 Q1014
 
LEMG - Malaga (civ/Mil), Spain
Distance from station: ESE 150km
Actualización: 21/01/2020 01:30
Parcialmente nuboso
Parcialmente nuboso
 Viento del ONO
Viento: ONO 13 km/h
Temperatura: 10°C
Wind Chill: 8°C
Rocío: 4°C
Humedad: 67%
Barómetro: 1014 hPa
Clouds: Parcialmente nuboso
Visibility: 10 km
Cloud details: Few Clouds 1219 m
Parcialmente nuboso 2134 m
2020/01/21 00:30 LEMG 210030Z 29007KT 9999 FEW040 SCT070 10/04 Q1014 NOSIG
GMTT - Tangier/Boukhalf, Morocco
Distance from station: S 169km
Actualización: 21/01/2020 01:30
Parcialmente nuboso
Parcialmente nuboso
 Viento del ESE
Viento: ESE 7 km/h
Temperatura: 10°C
Wind Chill: 9°C
Rocío: 7°C
Humedad: 82%
Barómetro: 1013 hPa
Clouds: Parcialmente nuboso
Visibility: 10 km
Cloud details: Parcialmente nuboso 1006 m
Parcialmente nuboso 2012 m
2020/01/21 00:30 GMTT 210030Z 12004KT 090V150 9999 SCT033 SCT066 10/07 Q1013 NOSIG
LPFR - Faro, Portugal
Distance from station: O 172km
Actualización: 21/01/2020 01:30
Despejado
Despejado
 Viento del NNE
Viento: NNE 24 km/h
Temperatura: 9°C
Wind Chill: 6°C
Rocío: 2°C
Humedad: 62%
Barómetro: 1016 hPa
Resumen: Despejado
Visibility: greater than 10 km
2020/01/21 00:30 LPFR 210030Z 03013KT CAVOK 09/02 Q1016
 
LPBJ - Beja (por/Ger-Af, Portugal
Distance from station: ONO 192km
Actualización: 21/01/2020 01:00
Despejado
Despejado
 Viento del NE
Viento: NE 19 km/h
Temperatura: 7°C
Wind Chill: 4°C
Rocío: 0°C
Humedad: 61%
Barómetro: 1018 hPa
Resumen: Despejado
Visibility: greater than 10 km
2020/01/21 00:00 LPBJ 210000Z 04010KT CAVOK 07/00 Q1018
LEBZ - Talavera Ab/Bada, Spain
Distance from station: NNO 194km
Actualización: 20/01/2020 21:00
NOT Current
Despejado
Despejado
 Viento del NE
Viento: NE 20 km/h
Temperatura: 7°C
Wind Chill: 4°C
Rocío: 0°C
Humedad: 61%
Barómetro: 1019 hPa
Resumen: Despejado
Visibility: greater than 10 km
2020/01/20 20:00 LEBZ 202000Z 05011KT CAVOK 07/00 Q1019
LEMD - Madrid/Barajas, Spain
Distance from station: NE 415km
Actualización: 21/01/2020 01:30
Parcialmente nuboso
Parcialmente nuboso
 Viento del NNE
Viento: NNE 20 km/h, Racha: 39 km/h
Temperatura: 5°C
Wind Chill: 1°C
Rocío: -3°C
Humedad: 57%
Barómetro: 1023 hPa
Clouds: Parcialmente nuboso
Visibility: 10 km
Cloud details: Parcialmente nuboso 2134 m
2020/01/21 00:30 LEMD 210030Z 03011G21KT 340V090 9999 SCT070 05/M03 Q1023 NOSIG